sensor_id;sensor_type;location;lat;lon;timestamp;P1;durP1;ratioP1;P2;durP2;ratioP2
39874;SDS011;25547;52.530;13.194;2023-02-24T06:14:50;7.32;;;0.10;;
39874;SDS011;25547;52.530;13.194;2023-02-24T06:17:22;9.45;;;1.00;;
39874;SDS011;25547;52.530;13.194;2023-02-24T06:19:50;5.47;;;0.10;;
39874;SDS011;25547;52.530;13.194;2023-02-24T06:22:21;8.30;;;0.60;;
39874;SDS011;25547;52.530;13.194;2023-02-24T06:24:51;9.83;;;0.30;;
39874;SDS011;25547;52.530;13.194;2023-02-24T06:27:19;9.02;;;0.60;;
39874;SDS011;25547;52.530;13.194;2023-02-24T06:29:48;11.77;;;0.10;;
39874;SDS011;25547;52.530;13.194;2023-02-24T06:32:16;3.08;;;0.10;;
39874;SDS011;25547;52.530;13.194;2023-02-24T06:34:42;5.75;;;0.10;;
39874;SDS011;25547;52.530;13.194;2023-02-24T06:37:10;5.70;;;0.10;;
39874;SDS011;25547;52.530;13.194;2023-02-24T06:39:37;8.15;;;1.27;;
39874;SDS011;25547;52.530;13.194;2023-02-24T06:42:04;7.70;;;0.10;;
39874;SDS011;25547;52.530;13.194;2023-02-24T06:44:33;3.85;;;0.08;;
39874;SDS011;25547;52.530;13.194;2023-02-24T06:47:00;2.80;;;0.45;;
39874;SDS011;25547;52.530;13.194;2023-02-24T06:49:27;4.70;;;0.10;;
39874;SDS011;25547;52.530;13.194;2023-02-24T06:51:53;5.07;;;1.00;;
39874;SDS011;25547;52.530;13.194;2023-02-24T06:54:20;7.95;;;0.30;;
39874;SDS011;25547;52.530;13.194;2023-02-24T06:56:49;3.40;;;0.32;;
39874;SDS011;25547;52.530;13.194;2023-02-24T06:59:14;6.00;;;0.20;;
39874;SDS011;25547;52.530;13.194;2023-02-24T07:01:48;5.00;;;0.38;;
39874;SDS011;25547;52.530;13.194;2023-02-24T07:04:19;7.80;;;0.20;;
39874;SDS011;25547;52.530;13.194;2023-02-24T07:06:52;4.60;;;0.05;;
39874;SDS011;25547;52.530;13.194;2023-02-24T07:09:21;7.78;;;0.80;;
39874;SDS011;25547;52.530;13.194;2023-02-24T07:11:50;6.40;;;0.60;;
39874;SDS011;25547;52.530;13.194;2023-02-24T07:14:21;13.38;;;0.65;;
39874;SDS011;25547;52.530;13.194;2023-02-24T07:16:50;7.55;;;0.47;;
39874;SDS011;25547;52.530;13.194;2023-02-24T07:19:22;4.32;;;0.10;;
39874;SDS011;25547;52.530;13.194;2023-02-24T07:21:54;3.95;;;0.90;;
39874;SDS011;25547;52.530;13.194;2023-02-24T07:24:24;5.75;;;0.10;;
39874;SDS011;25547;52.530;13.194;2023-02-24T07:27:07;8.48;;;0.32;;
39874;SDS011;25547;52.530;13.194;2023-02-24T07:29:38;1.88;;;0.10;;
39874;SDS011;25547;52.530;13.194;2023-02-24T07:32:05;5.18;;;0.10;;
39874;SDS011;25547;52.530;13.194;2023-02-24T07:34:32;3.22;;;0.73;;
39874;SDS011;25547;52.530;13.194;2023-02-24T07:36:59;5.78;;;0.47;;
39874;SDS011;25547;52.530;13.194;2023-02-24T07:39:30;4.18;;;0.10;;
39874;SDS011;25547;52.530;13.194;2023-02-24T07:41:56;5.18;;;0.10;;
39874;SDS011;25547;52.530;13.194;2023-02-24T07:44:23;3.58;;;0.10;;
39874;SDS011;25547;52.530;13.194;2023-02-24T07:46:49;4.22;;;0.57;;
39874;SDS011;25547;52.530;13.194;2023-02-24T07:49:19;15.23;;;2.92;;
39874;SDS011;25547;52.530;13.194;2023-02-24T07:51:49;4.60;;;0.20;;
39874;SDS011;25547;52.530;13.194;2023-02-24T07:54:17;3.05;;;0.10;;
39874;SDS011;25547;52.530;13.194;2023-02-24T07:56:45;11.00;;;1.05;;
39874;SDS011;25547;52.530;13.194;2023-02-24T07:59:13;7.88;;;0.88;;
39874;SDS011;25547;52.530;13.194;2023-02-24T08:01:43;6.57;;;0.52;;
39874;SDS011;25547;52.530;13.194;2023-02-24T08:04:17;2.13;;;0.10;;
39874;SDS011;25547;52.530;13.194;2023-02-24T08:06:44;5.75;;;0.30;;
39874;SDS011;25547;52.530;13.194;2023-02-24T08:09:19;6.35;;;0.10;;
39874;SDS011;25547;52.530;13.194;2023-02-24T08:12:06;10.13;;;0.20;;
39874;SDS011;25547;52.530;13.194;2023-02-24T08:14:32;4.07;;;0.10;;
39874;SDS011;25547;52.530;13.194;2023-02-24T08:17:02;4.63;;;0.10;;
39874;SDS011;25547;52.530;13.194;2023-02-24T08:19:30;5.20;;;0.10;;
39874;SDS011;25547;52.530;13.194;2023-02-24T08:21:57;3.38;;;0.20;;
39874;SDS011;25547;52.530;13.194;2023-02-24T08:24:44;4.80;;;0.20;;
39874;SDS011;25547;52.530;13.194;2023-02-24T08:27:16;3.65;;;0.35;;
39874;SDS011;25547;52.530;13.194;2023-02-24T08:29:51;3.53;;;0.10;;
39874;SDS011;25547;52.530;13.194;2023-02-24T08:35:13;4.85;;;0.10;;
39874;SDS011;25547;52.530;13.194;2023-02-24T08:43:14;6.35;;;1.27;;
39874;SDS011;25547;52.530;13.194;2023-02-24T08:48:47;3.95;;;0.20;;
39874;SDS011;25547;52.530;13.194;2023-02-24T08:54:01;10.68;;;0.40;;
39874;SDS011;25547;52.530;13.194;2023-02-24T08:56:34;1.88;;;0.52;;
39874;SDS011;25547;52.530;13.194;2023-02-24T08:59:02;5.80;;;0.10;;
39874;SDS011;25547;52.530;13.194;2023-02-24T09:01:35;5.50;;;0.32;;
39874;SDS011;25547;52.530;13.194;2023-02-24T09:04:06;2.67;;;0.10;;
39874;SDS011;25547;52.530;13.194;2023-02-24T09:09:12;3.58;;;0.95;;
39874;SDS011;25547;52.530;13.194;2023-02-24T09:11:44;4.43;;;0.30;;
39874;SDS011;25547;52.530;13.194;2023-02-24T09:14:20;13.55;;;0.40;;
39874;SDS011;25547;52.530;13.194;2023-02-24T09:16:49;7.20;;;0.68;;
39874;SDS011;25547;52.530;13.194;2023-02-24T09:19:35;3.65;;;0.10;;
39874;SDS011;25547;52.530;13.194;2023-02-24T09:22:29;4.03;;;0.50;;
39874;SDS011;25547;52.530;13.194;2023-02-24T09:25:05;6.22;;;0.25;;
39874;SDS011;25547;52.530;13.194;2023-02-24T09:30:20;5.60;;;0.20;;
39874;SDS011;25547;52.530;13.194;2023-02-24T09:33:03;5.07;;;0.28;;
39874;SDS011;25547;52.530;13.194;2023-02-24T09:35:41;7.88;;;0.40;;
39874;SDS011;25547;52.530;13.194;2023-02-24T09:38:27;8.52;;;0.95;;
39874;SDS011;25547;52.530;13.194;2023-02-24T09:41:21;3.30;;;0.38;;
39874;SDS011;25547;52.530;13.194;2023-02-24T09:43:58;6.80;;;0.45;;
39874;SDS011;25547;52.530;13.194;2023-02-24T09:46:33;4.63;;;0.20;;
39874;SDS011;25547;52.530;13.194;2023-02-24T09:49:16;2.90;;;0.10;;
39874;SDS011;25547;52.530;13.194;2023-02-24T09:51:44;5.00;;;0.10;;
39874;SDS011;25547;52.530;13.194;2023-02-24T09:54:18;2.60;;;0.10;;
39874;SDS011;25547;52.530;13.194;2023-02-24T09:57:09;3.75;;;0.17;;
39874;SDS011;25547;52.530;13.194;2023-02-24T09:59:44;5.07;;;0.30;;
39874;SDS011;25547;52.530;13.194;2023-02-24T10:02:56;6.38;;;0.10;;
39874;SDS011;25547;52.530;13.194;2023-02-24T10:06:10;7.82;;;0.82;;
39874;SDS011;25547;52.530;13.194;2023-02-24T10:08:53;4.15;;;0.10;;
39874;SDS011;25547;52.530;13.194;2023-02-24T10:11:22;6.28;;;0.10;;
39874;SDS011;25547;52.530;13.194;2023-02-24T10:13:58;5.50;;;0.10;;
39874;SDS011;25547;52.530;13.194;2023-02-24T10:16:29;8.52;;;0.82;;
39874;SDS011;25547;52.530;13.194;2023-02-24T10:19:25;6.60;;;0.10;;
39874;SDS011;25547;52.530;13.194;2023-02-24T10:22:05;6.45;;;0.22;;
39874;SDS011;25547;52.530;13.194;2023-02-24T10:24:52;3.30;;;0.17;;
39874;SDS011;25547;52.530;13.194;2023-02-24T10:33:17;2.70;;;0.10;;
39874;SDS011;25547;52.530;13.194;2023-02-24T10:36:03;6.18;;;0.10;;
39874;SDS011;25547;52.530;13.194;2023-02-24T10:38:36;4.57;;;0.10;;
39874;SDS011;25547;52.530;13.194;2023-02-24T10:41:12;4.72;;;0.30;;
39874;SDS011;25547;52.530;13.194;2023-02-24T10:43:39;5.18;;;0.40;;
39874;SDS011;25547;52.530;13.194;2023-02-24T10:46:24;5.63;;;1.08;;
39874;SDS011;25547;52.530;13.194;2023-02-24T10:48:57;3.63;;;0.30;;
39874;SDS011;25547;52.530;13.194;2023-02-24T10:51:27;8.25;;;0.17;;
39874;SDS011;25547;52.530;13.194;2023-02-24T10:57:09;1.77;;;0.25;;
39874;SDS011;25547;52.530;13.194;2023-02-24T11:02:49;1.60;;;0.10;;
39874;SDS011;25547;52.530;13.194;2023-02-24T11:05:41;4.03;;;0.10;;
39874;SDS011;25547;52.530;13.194;2023-02-24T11:08:27;2.92;;;0.10;;
39874;SDS011;25547;52.530;13.194;2023-02-24T11:13:54;5.22;;;0.10;;
39874;SDS011;25547;52.530;13.194;2023-02-24T11:16:46;5.00;;;0.20;;
39874;SDS011;25547;52.530;13.194;2023-02-24T11:19:32;2.47;;;0.13;;
39874;SDS011;25547;52.530;13.194;2023-02-24T11:22:06;1.83;;;0.20;;
39874;SDS011;25547;52.530;13.194;2023-02-24T11:24:37;8.35;;;0.30;;
39874;SDS011;25547;52.530;13.194;2023-02-24T11:27:08;2.75;;;0.10;;
39874;SDS011;25547;52.530;13.194;2023-02-24T11:40:42;2.08;;;0.13;;
39874;SDS011;25547;52.530;13.194;2023-02-24T11:43:19;3.78;;;0.10;;
39874;SDS011;25547;52.530;13.194;2023-02-24T11:48:45;4.07;;;0.10;;
39874;SDS011;25547;52.530;13.194;2023-02-24T11:51:28;6.85;;;0.10;;
39874;SDS011;25547;52.530;13.194;2023-02-24T11:54:03;2.40;;;0.05;;
39874;SDS011;25547;52.530;13.194;2023-02-24T11:59:47;3.38;;;0.10;;
39874;SDS011;25547;52.530;13.194;2023-02-24T12:04:59;3.47;;;0.10;;
39874;SDS011;25547;52.530;13.194;2023-02-24T12:13:48;3.55;;;0.10;;
39874;SDS011;25547;52.530;13.194;2023-02-24T12:16:28;3.13;;;0.10;;
39874;SDS011;25547;52.530;13.194;2023-02-24T12:19:05;4.18;;;0.20;;
39874;SDS011;25547;52.530;13.194;2023-02-24T12:21:45;1.80;;;0.13;;
39874;SDS011;25547;52.530;13.194;2023-02-24T12:24:17;3.45;;;0.10;;
39874;SDS011;25547;52.530;13.194;2023-02-24T12:37:54;7.25;;;1.17;;
39874;SDS011;25547;52.530;13.194;2023-02-24T12:51:24;3.22;;;0.00;;
39874;SDS011;25547;52.530;13.194;2023-02-24T12:56:54;3.95;;;1.23;;
39874;SDS011;25547;52.530;13.194;2023-02-24T12:59:40;2.15;;;0.03;;
39874;SDS011;25547;52.530;13.194;2023-02-24T13:02:09;1.52;;;0.00;;
39874;SDS011;25547;52.530;13.194;2023-02-24T13:05:03;3.08;;;0.10;;
39874;SDS011;25547;52.530;13.194;2023-02-24T13:18:24;2.83;;;0.55;;
39874;SDS011;25547;52.530;13.194;2023-02-24T13:21:27;1.77;;;0.20;;
39874;SDS011;25547;52.530;13.194;2023-02-24T13:23:59;1.48;;;0.30;;
39874;SDS011;25547;52.530;13.194;2023-02-24T13:26:26;1.52;;;0.10;;
39874;SDS011;25547;52.530;13.194;2023-02-24T13:29:29;1.90;;;0.10;;
39874;SDS011;25547;52.530;13.194;2023-02-24T13:31:51;3.08;;;0.10;;
39874;SDS011;25547;52.530;13.194;2023-02-24T13:36:46;1.63;;;0.17;;
39874;SDS011;25547;52.530;13.194;2023-02-24T13:39:23;2.15;;;0.10;;
39874;SDS011;25547;52.530;13.194;2023-02-24T13:42:00;2.75;;;0.10;;
39874;SDS011;25547;52.530;13.194;2023-02-24T13:45:32;2.60;;;0.20;;
39874;SDS011;25547;52.530;13.194;2023-02-24T13:47:44;2.13;;;0.10;;
39874;SDS011;25547;52.530;13.194;2023-02-24T13:59:25;4.20;;;1.20;;
39874;SDS011;25547;52.530;13.194;2023-02-24T14:02:13;2.60;;;0.10;;
39874;SDS011;25547;52.530;13.194;2023-02-24T14:07:21;3.30;;;0.57;;
39874;SDS011;25547;52.530;13.194;2023-02-24T14:09:56;3.38;;;0.68;;
39874;SDS011;25547;52.530;13.194;2023-02-24T14:12:29;1.33;;;0.17;;
39874;SDS011;25547;52.530;13.194;2023-02-24T14:14:58;3.70;;;0.20;;
39874;SDS011;25547;52.530;13.194;2023-02-24T14:17:32;2.40;;;0.20;;
39874;SDS011;25547;52.530;13.194;2023-02-24T14:23:35;2.83;;;0.10;;
39874;SDS011;25547;52.530;13.194;2023-02-24T14:25:47;3.30;;;0.20;;
39874;SDS011;25547;52.530;13.194;2023-02-24T14:28:26;2.47;;;0.20;;
39874;SDS011;25547;52.530;13.194;2023-02-24T14:31:34;1.33;;;0.15;;
39874;SDS011;25547;52.530;13.194;2023-02-24T14:34:00;1.85;;;0.30;;
39874;SDS011;25547;52.530;13.194;2023-02-24T14:36:35;2.28;;;0.15;;
39874;SDS011;25547;52.530;13.194;2023-02-24T14:39:07;3.33;;;0.22;;
39874;SDS011;25547;52.530;13.194;2023-02-24T14:41:38;1.13;;;0.20;;
39874;SDS011;25547;52.530;13.194;2023-02-24T14:44:19;3.22;;;0.20;;
39874;SDS011;25547;52.530;13.194;2023-02-24T14:46:46;1.92;;;0.20;;
39874;SDS011;25547;52.530;13.194;2023-02-24T14:49:21;5.25;;;0.20;;
39874;SDS011;25547;52.530;13.194;2023-02-24T14:51:59;0.98;;;0.10;;
39874;SDS011;25547;52.530;13.194;2023-02-24T14:54:58;1.50;;;0.10;;
39874;SDS011;25547;52.530;13.194;2023-02-24T14:57:35;4.13;;;0.90;;
39874;SDS011;25547;52.530;13.194;2023-02-24T15:00:11;1.33;;;0.40;;
39874;SDS011;25547;52.530;13.194;2023-02-24T15:02:49;3.88;;;0.52;;
39874;SDS011;25547;52.530;13.194;2023-02-24T15:05:44;0.50;;;0.10;;
39874;SDS011;25547;52.530;13.194;2023-02-24T15:08:56;0.90;;;0.17;;
39874;SDS011;25547;52.530;13.194;2023-02-24T15:13:42;1.17;;;0.20;;
39874;SDS011;25547;52.530;13.194;2023-02-24T15:18:48;3.20;;;0.10;;
39874;SDS011;25547;52.530;13.194;2023-02-24T15:21:28;1.00;;;0.20;;
39874;SDS011;25547;52.530;13.194;2023-02-24T15:24:00;2.25;;;0.17;;
39874;SDS011;25547;52.530;13.194;2023-02-24T15:26:29;1.38;;;0.10;;
39874;SDS011;25547;52.530;13.194;2023-02-24T15:28:57;0.60;;;0.00;;
39874;SDS011;25547;52.530;13.194;2023-02-24T15:31:27;2.05;;;0.13;;
39874;SDS011;25547;52.530;13.194;2023-02-24T15:36:26;1.23;;;0.10;;
39874;SDS011;25547;52.530;13.194;2023-02-24T15:38:59;0.68;;;0.13;;
39874;SDS011;25547;52.530;13.194;2023-02-24T15:41:41;0.70;;;0.10;;
39874;SDS011;25547;52.530;13.194;2023-02-24T15:44:25;2.58;;;0.30;;
39874;SDS011;25547;52.530;13.194;2023-02-24T15:46:54;1.10;;;0.10;;
39874;SDS011;25547;52.530;13.194;2023-02-24T15:49:20;0.65;;;0.10;;
39874;SDS011;25547;52.530;13.194;2023-02-24T15:51:49;1.88;;;0.10;;
39874;SDS011;25547;52.530;13.194;2023-02-24T15:54:28;1.83;;;0.25;;
39874;SDS011;25547;52.530;13.194;2023-02-24T15:57:00;0.60;;;0.10;;
39874;SDS011;25547;52.530;13.194;2023-02-24T15:59:27;1.33;;;0.10;;
39874;SDS011;25547;52.530;13.194;2023-02-24T16:01:55;1.75;;;0.10;;
39874;SDS011;25547;52.530;13.194;2023-02-24T16:04:23;1.52;;;0.10;;
39874;SDS011;25547;52.530;13.194;2023-02-24T16:06:51;3.20;;;0.25;;
39874;SDS011;25547;52.530;13.194;2023-02-24T16:09:24;2.88;;;0.20;;
39874;SDS011;25547;52.530;13.194;2023-02-24T16:11:50;1.10;;;0.22;;
39874;SDS011;25547;52.530;13.194;2023-02-24T16:14:18;1.30;;;0.30;;
39874;SDS011;25547;52.530;13.194;2023-02-24T16:16:44;1.17;;;0.22;;
39874;SDS011;25547;52.530;13.194;2023-02-24T16:19:12;1.90;;;0.40;;
39874;SDS011;25547;52.530;13.194;2023-02-24T16:21:39;0.98;;;0.20;;
39874;SDS011;25547;52.530;13.194;2023-02-24T16:24:07;1.83;;;0.30;;
39874;SDS011;25547;52.530;13.194;2023-02-24T16:26:36;2.65;;;0.50;;
39874;SDS011;25547;52.530;13.194;2023-02-24T16:29:04;4.18;;;0.43;;
39874;SDS011;25547;52.530;13.194;2023-02-24T16:31:36;2.95;;;0.40;;
39874;SDS011;25547;52.530;13.194;2023-02-24T16:34:06;2.65;;;0.80;;
39874;SDS011;25547;52.530;13.194;2023-02-24T16:36:31;1.23;;;0.47;;
39874;SDS011;25547;52.530;13.194;2023-02-24T16:38:57;1.95;;;0.40;;
39874;SDS011;25547;52.530;13.194;2023-02-24T16:41:28;2.10;;;0.40;;
39874;SDS011;25547;52.530;13.194;2023-02-24T16:43:55;2.55;;;0.52;;
39874;SDS011;25547;52.530;13.194;2023-02-24T16:46:21;1.83;;;0.52;;
39874;SDS011;25547;52.530;13.194;2023-02-24T16:48:48;2.15;;;0.70;;
39874;SDS011;25547;52.530;13.194;2023-02-24T16:51:17;4.38;;;0.75;;
39874;SDS011;25547;52.530;13.194;2023-02-24T16:53:43;3.65;;;1.10;;
39874;SDS011;25547;52.530;13.194;2023-02-24T16:56:11;2.13;;;0.85;;
39874;SDS011;25547;52.530;13.194;2023-02-24T16:58:41;2.00;;;1.10;;
39874;SDS011;25547;52.530;13.194;2023-02-24T17:01:12;2.47;;;1.67;;
39874;SDS011;25547;52.530;13.194;2023-02-24T17:03:43;4.95;;;1.63;;
39874;SDS011;25547;52.530;13.194;2023-02-24T17:06:10;3.95;;;1.25;;
39874;SDS011;25547;52.530;13.194;2023-02-24T17:08:36;3.92;;;1.60;;
39874;SDS011;25547;52.530;13.194;2023-02-24T17:11:05;2.90;;;1.65;;
39874;SDS011;25547;52.530;13.194;2023-02-24T17:13:41;3.25;;;1.85;;
39874;SDS011;25547;52.530;13.194;2023-02-24T17:16:12;3.25;;;2.00;;
39874;SDS011;25547;52.530;13.194;2023-02-24T17:18:40;4.57;;;2.80;;
39874;SDS011;25547;52.530;13.194;2023-02-24T17:21:05;4.13;;;2.60;;
39874;SDS011;25547;52.530;13.194;2023-02-24T17:23:31;4.22;;;2.40;;
39874;SDS011;25547;52.530;13.194;2023-02-24T17:26:01;3.58;;;2.35;;
39874;SDS011;25547;52.530;13.194;2023-02-24T17:28:27;5.65;;;2.83;;
39874;SDS011;25547;52.530;13.194;2023-02-24T17:30:53;5.90;;;2.60;;
39874;SDS011;25547;52.530;13.194;2023-02-24T17:33:19;3.65;;;2.60;;
39874;SDS011;25547;52.530;13.194;2023-02-24T17:35:47;5.55;;;2.72;;
39874;SDS011;25547;52.530;13.194;2023-02-24T17:38:16;4.18;;;2.90;;
39874;SDS011;25547;52.530;13.194;2023-02-24T17:40:44;4.47;;;2.65;;
39874;SDS011;25547;52.530;13.194;2023-02-24T17:43:10;4.88;;;3.40;;
39874;SDS011;25547;52.530;13.194;2023-02-24T17:45:35;6.95;;;4.47;;
39874;SDS011;25547;52.530;13.194;2023-02-24T17:50:32;7.35;;;3.78;;
39874;SDS011;25547;52.530;13.194;2023-02-24T17:53:00;5.05;;;3.72;;
39874;SDS011;25547;52.530;13.194;2023-02-24T17:55:26;6.15;;;4.20;;
39874;SDS011;25547;52.530;13.194;2023-02-24T17:57:56;5.07;;;3.55;;
39874;SDS011;25547;52.530;13.194;2023-02-24T18:00:24;8.73;;;4.72;;
39874;SDS011;25547;52.530;13.194;2023-02-24T18:02:51;7.88;;;4.53;;
39874;SDS011;25547;52.530;13.194;2023-02-24T18:05:17;7.70;;;5.32;;
39874;SDS011;25547;52.530;13.194;2023-02-24T18:07:45;11.73;;;5.80;;
39874;SDS011;25547;52.530;13.194;2023-02-24T18:10:11;10.07;;;5.85;;
39874;SDS011;25547;52.530;13.194;2023-02-24T18:12:37;11.15;;;5.28;;
39874;SDS011;25547;52.530;13.194;2023-02-24T18:15:04;10.40;;;6.18;;
39874;SDS011;25547;52.530;13.194;2023-02-24T18:17:32;9.15;;;6.15;;
39874;SDS011;25547;52.530;13.194;2023-02-24T18:19:59;8.43;;;5.93;;
39874;SDS011;25547;52.530;13.194;2023-02-24T18:22:27;11.13;;;6.25;;
39874;SDS011;25547;52.530;13.194;2023-02-24T18:24:53;12.75;;;6.57;;
39874;SDS011;25547;52.530;13.194;2023-02-24T18:27:18;12.05;;;5.88;;
39874;SDS011;25547;52.530;13.194;2023-02-24T18:29:46;9.88;;;7.00;;
39874;SDS011;25547;52.530;13.194;2023-02-24T18:32:11;10.63;;;7.22;;
39874;SDS011;25547;52.530;13.194;2023-02-24T18:34:37;10.98;;;7.32;;
39874;SDS011;25547;52.530;13.194;2023-02-24T18:37:03;9.32;;;7.07;;
39874;SDS011;25547;52.530;13.194;2023-02-24T18:39:28;12.20;;;7.05;;
39874;SDS011;25547;52.530;13.194;2023-02-24T18:41:56;12.60;;;8.30;;
39874;SDS011;25547;52.530;13.194;2023-02-24T18:44:22;9.85;;;7.30;;
39874;SDS011;25547;52.530;13.194;2023-02-24T18:46:53;12.35;;;7.28;;
39874;SDS011;25547;52.530;13.194;2023-02-24T18:49:21;13.55;;;7.93;;
39874;SDS011;25547;52.530;13.194;2023-02-24T18:51:47;10.68;;;6.90;;
39874;SDS011;25547;52.530;13.194;2023-02-24T18:54:13;11.80;;;8.57;;
39874;SDS011;25547;52.530;13.194;2023-02-24T18:56:39;13.85;;;8.05;;
39874;SDS011;25547;52.530;13.194;2023-02-24T18:59:05;11.45;;;7.32;;
39874;SDS011;25547;52.530;13.194;2023-02-24T19:01:32;11.68;;;7.68;;
39874;SDS011;25547;52.530;13.194;2023-02-24T19:03:59;17.13;;;8.70;;
39874;SDS011;25547;52.530;13.194;2023-02-24T19:06:25;11.35;;;7.72;;
39874;SDS011;25547;52.530;13.194;2023-02-24T19:08:56;13.95;;;7.07;;
39874;SDS011;25547;52.530;13.194;2023-02-24T19:11:36;10.90;;;7.53;;
39874;SDS011;25547;52.530;13.194;2023-02-24T19:14:05;13.43;;;7.78;;
39874;SDS011;25547;52.530;13.194;2023-02-24T19:16:35;12.32;;;7.53;;
39874;SDS011;25547;52.530;13.194;2023-02-24T19:19:06;13.63;;;8.45;;
39874;SDS011;25547;52.530;13.194;2023-02-24T19:21:33;14.55;;;7.63;;
39874;SDS011;25547;52.530;13.194;2023-02-24T19:24:02;11.60;;;8.00;;
39874;SDS011;25547;52.530;13.194;2023-02-24T19:26:31;14.83;;;8.40;;
39874;SDS011;25547;52.530;13.194;2023-02-24T19:28:57;13.90;;;8.45;;
39874;SDS011;25547;52.530;13.194;2023-02-24T19:31:25;12.70;;;8.40;;
39874;SDS011;25547;52.530;13.194;2023-02-24T19:34:01;13.77;;;8.27;;
39874;SDS011;25547;52.530;13.194;2023-02-24T19:36:29;12.88;;;8.60;;
39874;SDS011;25547;52.530;13.194;2023-02-24T19:38:56;14.73;;;9.13;;
39874;SDS011;25547;52.530;13.194;2023-02-24T19:41:24;11.60;;;8.23;;
39874;SDS011;25547;52.530;13.194;2023-02-24T19:43:50;16.98;;;9.48;;
39874;SDS011;25547;52.530;13.194;2023-02-24T19:46:16;11.23;;;7.95;;
39874;SDS011;25547;52.530;13.194;2023-02-24T19:48:44;13.77;;;9.15;;
39874;SDS011;25547;52.530;13.194;2023-02-24T19:53:40;16.15;;;10.25;;
39874;SDS011;25547;52.530;13.194;2023-02-24T19:56:06;13.20;;;9.15;;
39874;SDS011;25547;52.530;13.194;2023-02-24T19:58:34;13.13;;;8.20;;
39874;SDS011;25547;52.530;13.194;2023-02-24T20:01:06;12.25;;;8.20;;
39874;SDS011;25547;52.530;13.194;2023-02-24T20:03:35;14.35;;;8.05;;
39874;SDS011;25547;52.530;13.194;2023-02-24T20:06:04;17.33;;;8.98;;
39874;SDS011;25547;52.530;13.194;2023-02-24T20:08:32;13.27;;;8.05;;
39874;SDS011;25547;52.530;13.194;2023-02-24T20:11:03;13.63;;;7.30;;
39874;SDS011;25547;52.530;13.194;2023-02-24T20:13:30;11.60;;;8.45;;
39874;SDS011;25547;52.530;13.194;2023-02-24T20:16:06;15.15;;;8.82;;
39874;SDS011;25547;52.530;13.194;2023-02-24T20:18:36;11.63;;;8.18;;
39874;SDS011;25547;52.530;13.194;2023-02-24T20:21:03;12.32;;;8.40;;
39874;SDS011;25547;52.530;13.194;2023-02-24T20:23:31;12.15;;;9.07;;
39874;SDS011;25547;52.530;13.194;2023-02-24T20:25:57;14.48;;;9.95;;
39874;SDS011;25547;52.530;13.194;2023-02-24T20:28:23;12.60;;;9.38;;
39874;SDS011;25547;52.530;13.194;2023-02-24T20:30:51;15.48;;;9.02;;
39874;SDS011;25547;52.530;13.194;2023-02-24T20:33:20;17.80;;;10.63;;
39874;SDS011;25547;52.530;13.194;2023-02-24T20:35:46;17.00;;;10.18;;
39874;SDS011;25547;52.530;13.194;2023-02-24T20:38:12;15.65;;;10.70;;
39874;SDS011;25547;52.530;13.194;2023-02-24T20:40:38;19.20;;;10.07;;
39874;SDS011;25547;52.530;13.194;2023-02-24T20:43:05;17.50;;;9.38;;
39874;SDS011;25547;52.530;13.194;2023-02-24T20:45:32;16.30;;;9.30;;
39874;SDS011;25547;52.530;13.194;2023-02-24T20:47:59;20.10;;;11.48;;
39874;SDS011;25547;52.530;13.194;2023-02-24T20:50:25;15.85;;;11.05;;
39874;SDS011;25547;52.530;13.194;2023-02-24T20:52:51;17.55;;;10.32;;
39874;SDS011;25547;52.530;13.194;2023-02-24T20:55:17;16.17;;;9.40;;
39874;SDS011;25547;52.530;13.194;2023-02-24T20:57:45;15.65;;;11.10;;
39874;SDS011;25547;52.530;13.194;2023-02-24T21:00:13;16.63;;;10.82;;
39874;SDS011;25547;52.530;13.194;2023-02-24T21:02:40;16.33;;;9.65;;
39874;SDS011;25547;52.530;13.194;2023-02-24T21:07:44;14.73;;;9.45;;
39874;SDS011;25547;52.530;13.194;2023-02-24T21:10:10;17.05;;;10.05;;
39874;SDS011;25547;52.530;13.194;2023-02-24T21:12:38;14.02;;;9.43;;
39874;SDS011;25547;52.530;13.194;2023-02-24T21:15:04;17.20;;;9.98;;
39874;SDS011;25547;52.530;13.194;2023-02-24T21:17:30;17.20;;;10.70;;
39874;SDS011;25547;52.530;13.194;2023-02-24T21:19:58;14.85;;;9.45;;
39874;SDS011;25547;52.530;13.194;2023-02-24T21:22:25;19.90;;;10.32;;
39874;SDS011;25547;52.530;13.194;2023-02-24T21:24:55;22.98;;;11.93;;
39874;SDS011;25547;52.530;13.194;2023-02-24T21:27:21;18.65;;;11.38;;
39874;SDS011;25547;52.530;13.194;2023-02-24T21:29:48;15.48;;;10.63;;
39874;SDS011;25547;52.530;13.194;2023-02-24T21:32:13;21.17;;;12.23;;
39874;SDS011;25547;52.530;13.194;2023-02-24T21:34:41;17.52;;;10.55;;
39874;SDS011;25547;52.530;13.194;2023-02-24T21:37:07;16.27;;;10.23;;
39874;SDS011;25547;52.530;13.194;2023-02-24T21:39:35;17.83;;;10.57;;
39874;SDS011;25547;52.530;13.194;2023-02-24T21:42:05;14.98;;;9.88;;
39874;SDS011;25547;52.530;13.194;2023-02-24T21:44:36;15.55;;;10.02;;
39874;SDS011;25547;52.530;13.194;2023-02-24T21:47:04;15.55;;;10.07;;
39874;SDS011;25547;52.530;13.194;2023-02-24T21:49:31;17.77;;;10.38;;
39874;SDS011;25547;52.530;13.194;2023-02-24T21:51:57;16.67;;;9.50;;
39874;SDS011;25547;52.530;13.194;2023-02-24T21:54:23;12.90;;;8.57;;
39874;SDS011;25547;52.530;13.194;2023-02-24T21:56:50;15.38;;;8.82;;
39874;SDS011;25547;52.530;13.194;2023-02-24T21:59:16;13.85;;;8.68;;
39874;SDS011;25547;52.530;13.194;2023-02-24T22:01:44;13.23;;;7.82;;
39874;SDS011;25547;52.530;13.194;2023-02-24T22:04:11;14.70;;;7.65;;
39874;SDS011;25547;52.530;13.194;2023-02-24T22:06:42;13.45;;;7.75;;
39874;SDS011;25547;52.530;13.194;2023-02-24T22:09:10;13.38;;;8.40;;
39874;SDS011;25547;52.530;13.194;2023-02-24T22:11:37;11.23;;;7.40;;
39874;SDS011;25547;52.530;13.194;2023-02-24T22:14:05;15.85;;;8.35;;
39874;SDS011;25547;52.530;13.194;2023-02-24T22:16:32;15.13;;;7.65;;
39874;SDS011;25547;52.530;13.194;2023-02-24T22:18:58;13.27;;;7.30;;
39874;SDS011;25547;52.530;13.194;2023-02-24T22:21:26;17.55;;;6.82;;
39874;SDS011;25547;52.530;13.194;2023-02-24T22:23:58;13.48;;;6.70;;
39874;SDS011;25547;52.530;13.194;2023-02-24T22:26:25;10.85;;;5.65;;
39874;SDS011;25547;52.530;13.194;2023-02-24T22:28:52;12.77;;;6.93;;
39874;SDS011;25547;52.530;13.194;2023-02-24T22:31:20;11.23;;;5.82;;
39874;SDS011;25547;52.530;13.194;2023-02-24T22:33:50;11.05;;;4.90;;
39874;SDS011;25547;52.530;13.194;2023-02-24T22:36:20;11.32;;;3.88;;
39874;SDS011;25547;52.530;13.194;2023-02-24T22:38:50;12.05;;;5.10;;
39874;SDS011;25547;52.530;13.194;2023-02-24T22:41:25;11.27;;;4.28;;
39874;SDS011;25547;52.530;13.194;2023-02-24T22:43:52;12.20;;;4.32;;
39874;SDS011;25547;52.530;13.194;2023-02-24T22:46:19;10.35;;;3.28;;
39874;SDS011;25547;52.530;13.194;2023-02-24T22:48:47;15.63;;;3.45;;
39874;SDS011;25547;52.530;13.194;2023-02-24T22:51:14;8.20;;;2.50;;
39874;SDS011;25547;52.530;13.194;2023-02-24T22:53:42;11.80;;;2.42;;
39874;SDS011;25547;52.530;13.194;2023-02-24T22:56:09;5.95;;;2.28;;
39874;SDS011;25547;52.530;13.194;2023-02-24T22:58:36;10.23;;;2.38;;
39874;SDS011;25547;52.530;13.194;2023-02-24T23:01:07;9.25;;;2.92;;
39874;SDS011;25547;52.530;13.194;2023-02-24T23:03:39;5.57;;;1.48;;
39874;SDS011;25547;52.530;13.194;2023-02-24T23:06:10;8.85;;;0.90;;
39874;SDS011;25547;52.530;13.194;2023-02-24T23:08:42;8.20;;;0.55;;
39874;SDS011;25547;52.530;13.194;2023-02-24T23:11:17;5.50;;;0.52;;
39874;SDS011;25547;52.530;13.194;2023-02-24T23:13:47;6.57;;;0.70;;
39874;SDS011;25547;52.530;13.194;2023-02-24T23:16:14;8.57;;;0.70;;